createdAt,value
2019-04-29T00:01:43.029Z,14.59
2019-04-29T00:04:14.809Z,14.55
2019-04-29T00:06:46.558Z,14.53
2019-04-29T00:09:19.033Z,14.48
2019-04-29T00:11:50.637Z,14.44
2019-04-29T00:14:22.650Z,14.46
2019-04-29T00:17:02.096Z,14.48
2019-04-29T00:19:41.307Z,14.41
2019-04-29T00:22:12.863Z,14.46
2019-04-29T00:24:45.087Z,14.51
2019-04-29T00:27:16.486Z,14.47
2019-04-29T00:29:48.257Z,14.50
2019-04-29T00:32:20.123Z,14.48
2019-04-29T00:34:51.978Z,14.45
2019-04-29T00:37:31.106Z,14.42
2019-04-29T00:40:23.091Z,14.34
2019-04-29T00:42:59.610Z,14.39
2019-04-29T00:45:31.573Z,14.34
2019-04-29T00:48:03.202Z,14.28
2019-04-29T00:50:35.018Z,14.28
2019-04-29T00:53:06.536Z,14.26
2019-04-29T00:55:38.085Z,14.26
2019-04-29T00:58:09.746Z,14.21
2019-04-29T01:00:42.955Z,14.23
2019-04-29T01:03:14.889Z,14.20
2019-04-29T01:05:46.538Z,14.23
2019-04-29T01:08:18.346Z,14.19
2019-04-29T01:10:50.599Z,14.25
2019-04-29T01:13:22.623Z,14.30
2019-04-29T01:15:54.379Z,14.22
2019-04-29T01:18:25.930Z,14.30
2019-04-29T01:20:57.729Z,14.23
2019-04-29T01:23:29.482Z,14.15
2019-04-29T01:26:02.759Z,14.16
2019-04-29T01:28:35.743Z,14.10
2019-04-29T01:31:09.155Z,14.12
2019-04-29T01:33:40.794Z,14.13
2019-04-29T01:36:16.981Z,14.11
2019-04-29T01:38:49.718Z,14.14
2019-04-29T01:41:25.511Z,14.05
2019-04-29T01:44:04.257Z,13.96
2019-04-29T01:46:35.870Z,13.95
2019-04-29T01:49:07.617Z,13.87
2019-04-29T01:51:39.603Z,13.85
2019-04-29T01:54:11.465Z,13.80
2019-04-29T01:56:43.705Z,13.76
2019-04-29T01:59:15.451Z,13.79
2019-04-29T02:01:47.330Z,13.82
2019-04-29T02:04:19.106Z,13.82
2019-04-29T02:06:50.848Z,13.81
2019-04-29T02:09:33.469Z,13.75
2019-04-29T02:12:05.457Z,13.72
2019-04-29T02:14:37.477Z,13.69
2019-04-29T02:17:09.357Z,13.73
2019-04-29T02:19:40.976Z,13.73
2019-04-29T02:22:17.447Z,13.74
2019-04-29T02:24:50.744Z,13.67
2019-04-29T02:27:22.267Z,13.60
2019-04-29T02:29:54.206Z,13.53
2019-04-29T02:32:26.133Z,13.59
2019-04-29T02:34:58.015Z,13.44
2019-04-29T02:37:31.063Z,13.43
2019-04-29T02:40:07.124Z,13.29
2019-04-29T02:42:40.773Z,13.27
2019-04-29T02:45:16.854Z,13.30
2019-04-29T02:47:48.718Z,13.30
2019-04-29T02:50:21.628Z,13.29
2019-04-29T02:52:53.229Z,13.25
2019-04-29T02:55:27.430Z,13.13
2019-04-29T02:58:03.690Z,13.03
2019-04-29T03:00:37.223Z,12.92
2019-04-29T03:03:10.368Z,12.93
2019-04-29T03:05:43.437Z,12.89
2019-04-29T03:08:14.989Z,12.76
2019-04-29T03:10:46.770Z,12.66
2019-04-29T03:13:18.768Z,12.56
2019-04-29T03:15:50.900Z,12.39
2019-04-29T03:18:24.305Z,12.31
2019-04-29T03:20:57.366Z,12.33
2019-04-29T03:23:29.449Z,12.30
2019-04-29T03:26:00.975Z,12.24
2019-04-29T03:28:32.907Z,12.25
2019-04-29T03:31:04.736Z,12.24
2019-04-29T03:33:36.589Z,12.24
2019-04-29T03:36:08.422Z,12.27
2019-04-29T03:38:39.899Z,12.31
2019-04-29T03:41:11.530Z,12.36
2019-04-29T03:43:43.588Z,12.36
2019-04-29T03:46:15.275Z,12.46
2019-04-29T03:48:47.146Z,12.48
2019-04-29T03:51:18.971Z,12.51
2019-04-29T03:53:50.415Z,12.55
2019-04-29T03:56:22.174Z,12.60
2019-04-29T03:58:53.703Z,12.60
2019-04-29T04:01:27.134Z,12.68
2019-04-29T04:04:03.320Z,12.78
2019-04-29T04:06:36.915Z,12.81
2019-04-29T04:09:16.290Z,12.89
2019-04-29T04:11:48.026Z,12.94
2019-04-29T04:14:19.667Z,12.99
2019-04-29T04:17:11.585Z,12.98
2019-04-29T04:19:43.340Z,13.06
2019-04-29T04:22:15.437Z,13.07
2019-04-29T04:24:47.448Z,13.08
2019-04-29T04:27:19.128Z,13.18
2019-04-29T04:29:51.935Z,13.15
2019-04-29T04:32:23.763Z,13.17
2019-04-29T04:34:55.830Z,13.24
2019-04-29T04:37:27.932Z,13.29
2019-04-29T04:40:00.073Z,13.32
2019-04-29T04:42:32.156Z,13.36
2019-04-29T04:45:04.179Z,13.38
2019-04-29T04:47:36.148Z,13.44
2019-04-29T04:50:09.118Z,13.47
2019-04-29T04:52:41.312Z,13.53
2019-04-29T04:55:13.470Z,13.67
2019-04-29T04:57:45.515Z,13.76
2019-04-29T05:00:25.502Z,13.77
2019-04-29T05:02:57.133Z,13.81
2019-04-29T05:05:28.994Z,13.88
2019-04-29T05:08:01.143Z,13.94
2019-04-29T05:10:33.236Z,13.95
2019-04-29T05:13:05.068Z,13.94
2019-04-29T05:15:36.795Z,13.90
2019-04-29T05:18:08.410Z,14.02
2019-04-29T05:20:40.376Z,14.02
2019-04-29T05:23:12.117Z,13.94
2019-04-29T05:25:43.891Z,14.03
2019-04-29T05:28:15.431Z,14.07
2019-04-29T05:30:47.062Z,14.18
2019-04-29T05:33:20.048Z,14.11
2019-04-29T05:36:01.477Z,14.28
2019-04-29T05:38:40.478Z,14.36
2019-04-29T05:41:12.139Z,14.37
2019-04-29T05:44:04.165Z,14.45
2019-04-29T05:46:40.612Z,14.45
2019-04-29T05:49:14.134Z,14.52
2019-04-29T05:51:47.199Z,14.72
2019-04-29T05:54:20.403Z,14.87
2019-04-29T05:56:52.051Z,15.06
2019-04-29T05:59:24.133Z,15.28
2019-04-29T06:01:55.672Z,15.37
2019-04-29T06:04:28.743Z,15.55
2019-04-29T06:07:00.509Z,15.59
2019-04-29T06:09:32.411Z,15.74
2019-04-29T06:12:05.254Z,15.81
2019-04-29T06:14:36.968Z,15.79
2019-04-29T06:17:08.770Z,15.77
2019-04-29T06:19:41.091Z,15.92
2019-04-29T06:22:12.730Z,15.89
2019-04-29T06:24:44.666Z,15.99
2019-04-29T06:27:16.416Z,16.15
2019-04-29T06:29:48.191Z,16.24
2019-04-29T06:32:20.195Z,16.19
2019-04-29T06:34:53.398Z,16.29
2019-04-29T06:37:25.206Z,16.29
2019-04-29T06:39:56.866Z,16.39
2019-04-29T06:42:28.513Z,16.48
2019-04-29T06:45:00.154Z,16.56
2019-04-29T06:47:32.068Z,16.47
2019-04-29T06:50:08.205Z,16.38
2019-04-29T06:52:39.622Z,16.38
2019-04-29T06:55:11.582Z,16.42
2019-04-29T06:57:43.136Z,16.50
2019-04-29T07:00:17.564Z,16.47
2019-04-29T07:02:51.023Z,16.62
2019-04-29T07:05:22.937Z,16.57
2019-04-29T07:07:54.585Z,16.67
2019-04-29T07:10:27.130Z,16.68
2019-04-29T07:12:59.108Z,16.70
2019-04-29T07:15:31.105Z,16.70
2019-04-29T07:18:02.854Z,16.75
2019-04-29T07:20:37.052Z,16.89
2019-04-29T07:23:08.004Z,16.86
2019-04-29T07:25:39.637Z,16.76
2019-04-29T07:28:13.681Z,16.70
2019-04-29T07:31:00.477Z,16.68
2019-04-29T07:33:22.678Z,16.51
2019-04-29T07:35:51.187Z,16.48
2019-04-29T07:38:22.518Z,16.46
2019-04-29T07:40:54.552Z,16.37
2019-04-29T07:43:26.563Z,16.36
2019-04-29T07:46:03.801Z,16.38
2019-04-29T07:48:36.851Z,16.34
2019-04-29T07:51:06.640Z,16.36
2019-04-29T07:53:45.183Z,16.36
2019-04-29T07:56:11.811Z,16.29
2019-04-29T07:58:43.547Z,16.30
2019-04-29T08:01:19.910Z,16.41
2019-04-29T08:03:49.522Z,16.36
2019-04-29T08:06:22.048Z,16.35
2019-04-29T08:08:55.503Z,16.29
2019-04-29T08:11:27.142Z,16.33
2019-04-29T08:14:01.564Z,16.29
2019-04-29T08:16:33.238Z,16.30
2019-04-29T08:19:05.835Z,16.11
2019-04-29T08:21:37.769Z,16.00
2019-04-29T08:24:11.557Z,15.97
2019-04-29T08:26:47.467Z,15.88
2019-04-29T08:29:16.618Z,15.91
2019-04-29T08:31:51.808Z,15.90
2019-04-29T08:34:23.071Z,15.85
2019-04-29T08:36:55.306Z,15.90
2019-04-29T08:39:29.434Z,15.84
2019-04-29T08:42:03.876Z,15.88
2019-04-29T08:44:37.198Z,15.89
2019-04-29T08:47:17.258Z,15.86
2019-04-29T08:49:49.028Z,15.87
2019-04-29T08:52:20.877Z,15.93
2019-04-29T08:54:55.299Z,15.92
2019-04-29T08:57:26.160Z,15.87
2019-04-29T08:59:57.795Z,15.90
2019-04-29T09:02:35.145Z,15.86
2019-04-29T09:05:11.474Z,15.86
2019-04-29T09:07:40.982Z,15.89
2019-04-29T09:10:13.411Z,15.85
2019-04-29T09:12:45.379Z,15.84
2019-04-29T09:15:17.914Z,15.95
2019-04-29T09:17:49.519Z,15.95
2019-04-29T09:20:21.248Z,16.01
2019-04-29T09:23:00.551Z,16.05
2019-04-29T09:25:34.098Z,16.09
2019-04-29T09:28:18.240Z,16.13
2019-04-29T09:30:49.298Z,16.18
2019-04-29T09:33:21.355Z,16.29
2019-04-29T09:35:53.090Z,16.33
2019-04-29T09:38:24.824Z,16.44
2019-04-29T09:41:13.297Z,16.50
2019-04-29T09:43:49.580Z,16.62
2019-04-29T09:46:23.266Z,16.68
2019-04-29T09:48:54.836Z,16.76
2019-04-29T09:51:27.666Z,16.78
2019-04-29T09:53:59.692Z,16.87
2019-04-29T09:56:34.522Z,16.89
2019-04-29T09:59:22.944Z,16.95
2019-04-29T10:01:58.905Z,17.03
2019-04-29T10:04:38.236Z,17.07
2019-04-29T10:07:11.833Z,17.17
2019-04-29T10:09:56.506Z,17.23
2019-04-29T10:12:18.061Z,17.27
2019-04-29T10:14:50.088Z,17.32
2019-04-29T10:17:26.355Z,17.48
2019-04-29T10:20:08.501Z,17.59
2019-04-29T10:22:40.091Z,17.68
2019-04-29T10:25:12.339Z,17.70
2019-04-29T10:27:44.033Z,17.69
2019-04-29T10:30:18.151Z,17.65
2019-04-29T10:32:50.312Z,17.62
2019-04-29T10:35:22.161Z,17.62
2019-04-29T10:37:54.014Z,17.48
2019-04-29T10:40:27.768Z,17.52
2019-04-29T10:43:17.359Z,17.53
2019-04-29T10:45:59.809Z,17.58
2019-04-29T10:48:33.301Z,17.48
2019-04-29T10:51:06.087Z,17.36
2019-04-29T10:53:37.938Z,17.40
2019-04-29T10:56:09.625Z,17.38
2019-04-29T10:58:41.563Z,17.40
2019-04-29T11:01:30.370Z,17.38
2019-04-29T11:04:02.834Z,17.29
2019-04-29T11:06:35.713Z,17.10
2019-04-29T11:09:16.113Z,17.06
2019-04-29T11:11:49.433Z,16.98
2019-04-29T11:14:21.056Z,16.81
2019-04-29T11:16:53.373Z,16.76
2019-04-29T11:19:25.425Z,16.81
2019-04-29T11:22:02.181Z,16.81
2019-04-29T11:24:35.738Z,16.76
2019-04-29T11:27:12.719Z,16.75
2019-04-29T11:29:44.348Z,16.75
2019-04-29T11:32:33.222Z,16.83
2019-04-29T11:35:17.131Z,16.94
2019-04-29T11:37:49.949Z,17.03
2019-04-29T11:40:26.115Z,17.10
2019-04-29T11:42:56.702Z,17.06
2019-04-29T11:45:28.581Z,17.19
2019-04-29T11:48:00.648Z,17.22
2019-04-29T11:50:34.022Z,17.42
2019-04-29T11:53:06.543Z,17.53
2019-04-29T11:55:38.359Z,17.62
2019-04-29T11:58:12.130Z,17.63
2019-04-29T12:01:04.027Z,17.72
2019-04-29T12:03:43.384Z,17.72
2019-04-29T12:06:20.262Z,17.84
2019-04-29T12:08:53.396Z,17.99
2019-04-29T12:11:23.733Z,18.28
2019-04-29T12:13:59.027Z,18.57
2019-04-29T12:16:41.998Z,18.59
2019-04-29T12:19:22.613Z,18.62
2019-04-29T12:21:56.040Z,18.84
2019-04-29T12:24:27.701Z,18.90
2019-04-29T12:26:59.402Z,18.95
2019-04-29T12:29:31.433Z,19.00
2019-04-29T12:32:07.721Z,19.09
2019-04-29T12:34:44.151Z,19.02
2019-04-29T12:37:34.544Z,19.04
2019-04-29T12:40:17.618Z,19.05
2019-04-29T12:43:00.210Z,19.07
2019-04-29T12:45:39.938Z,19.02
2019-04-29T12:48:24.021Z,18.91
2019-04-29T12:50:44.991Z,18.88
2019-04-29T12:53:17.136Z,18.89
2019-04-29T12:55:53.535Z,18.92
2019-04-29T12:58:25.878Z,18.92
2019-04-29T13:01:01.101Z,18.91
2019-04-29T13:03:40.097Z,18.84
2019-04-29T13:06:12.983Z,18.80
2019-04-29T13:08:46.238Z,18.89
2019-04-29T13:11:19.185Z,18.83
2019-04-29T13:13:56.568Z,18.83
2019-04-29T13:16:43.354Z,18.77
2019-04-29T13:19:20.288Z,18.68
2019-04-29T13:21:50.214Z,18.58
2019-04-29T13:24:24.431Z,18.60
2019-04-29T13:26:56.061Z,18.57
2019-04-29T13:29:31.876Z,18.56
2019-04-29T13:32:01.868Z,18.60
2019-04-29T13:34:35.561Z,18.55
2019-04-29T13:37:18.119Z,18.50
2019-04-29T13:39:40.905Z,18.37
2019-04-29T13:42:15.849Z,18.32
2019-04-29T13:45:06.148Z,18.27
2019-04-29T13:47:29.083Z,18.21
2019-04-29T13:50:20.221Z,18.10
2019-04-29T13:52:37.710Z,18.09
2019-04-29T13:55:17.840Z,17.99
2019-04-29T13:57:45.113Z,17.90
2019-04-29T14:00:24.579Z,17.80
2019-04-29T14:02:59.336Z,17.75
2019-04-29T14:05:32.529Z,17.63
2019-04-29T14:08:04.908Z,17.60
2019-04-29T14:10:36.914Z,17.47
2019-04-29T14:13:15.206Z,17.37
2019-04-29T14:15:42.875Z,17.30
2019-04-29T14:18:15.362Z,17.28
2019-04-29T14:20:51.762Z,17.21
2019-04-29T14:23:21.955Z,17.10
2019-04-29T14:25:54.647Z,17.09
2019-04-29T14:28:26.603Z,17.01
2019-04-29T14:30:58.551Z,16.93
2019-04-29T14:33:32.309Z,16.79
2019-04-29T14:36:06.146Z,16.65
2019-04-29T14:38:40.762Z,16.56
2019-04-29T14:41:14.043Z,16.51
2019-04-29T14:43:46.335Z,16.55
2019-04-29T14:46:35.809Z,16.54
2019-04-29T14:49:11.851Z,16.49
2019-04-29T14:51:43.219Z,16.40
2019-04-29T14:54:14.992Z,16.32
2019-04-29T14:56:46.845Z,16.21
2019-04-29T14:59:18.762Z,16.08
2019-04-29T15:01:58.402Z,16.03
2019-04-29T15:04:31.978Z,15.89
2019-04-29T15:07:03.601Z,15.83
2019-04-29T15:09:46.398Z,15.82
2019-04-29T15:12:12.138Z,15.74
2019-04-29T15:14:59.116Z,15.67
2019-04-29T15:17:36.260Z,15.59
2019-04-29T15:20:11.374Z,15.50
2019-04-29T15:22:43.076Z,15.44
2019-04-29T15:25:16.815Z,15.46
2019-04-29T15:27:48.496Z,15.40
2019-04-29T15:30:20.431Z,15.28
2019-04-29T15:32:53.178Z,15.18
2019-04-29T15:35:25.694Z,15.12
2019-04-29T15:37:58.013Z,15.10
2019-04-29T15:40:30.006Z,15.03
2019-04-29T15:43:02.169Z,14.89
2019-04-29T15:45:34.480Z,14.85
2019-04-29T15:48:06.427Z,14.76
2019-04-29T15:50:39.127Z,14.70
2019-04-29T15:53:10.827Z,14.66
2019-04-29T15:55:43.233Z,14.60
2019-04-29T15:58:15.360Z,14.55
2019-04-29T16:00:47.529Z,14.50
2019-04-29T16:03:20.816Z,14.46
2019-04-29T16:06:19.660Z,14.38
2019-04-29T16:08:49.392Z,14.34
2019-04-29T16:11:41.413Z,14.21
2019-04-29T16:14:15.081Z,14.16
2019-04-29T16:16:47.080Z,14.06
2019-04-29T16:19:19.123Z,14.00
2019-04-29T16:21:51.111Z,13.94
2019-04-29T16:24:27.313Z,13.91
2019-04-29T16:27:01.206Z,13.85
2019-04-29T16:29:31.011Z,13.81
2019-04-29T16:32:05.020Z,13.76
2019-04-29T16:34:44.639Z,13.72
2019-04-29T16:37:18.556Z,13.62
2019-04-29T16:39:45.266Z,13.57
2019-04-29T16:42:21.833Z,13.47
2019-04-29T16:44:53.951Z,13.42
2019-04-29T16:47:26.013Z,13.40
2019-04-29T16:50:04.687Z,13.32
2019-04-29T16:52:31.647Z,13.27
2019-04-29T16:55:05.827Z,13.21
2019-04-29T16:57:38.234Z,13.15
2019-04-29T17:00:15.801Z,13.12
2019-04-29T17:02:47.078Z,13.06
2019-04-29T17:05:19.457Z,13.02
2019-04-29T17:07:52.988Z,12.97
2019-04-29T17:10:29.495Z,12.92
2019-04-29T17:13:01.566Z,12.87
2019-04-29T17:15:33.951Z,12.88
2019-04-29T17:18:06.580Z,12.78
2019-04-29T17:20:38.269Z,12.70
2019-04-29T17:23:10.159Z,12.60
2019-04-29T17:25:42.297Z,12.54
2019-04-29T17:28:24.448Z,12.59
2019-04-29T17:31:12.302Z,12.46
2019-04-29T17:35:16.999Z,12.40
2019-04-29T17:36:23.195Z,12.31
2019-04-29T17:38:51.628Z,12.27
2019-04-29T17:41:23.763Z,12.30
2019-04-29T17:44:14.558Z,12.20
2019-04-29T17:46:47.655Z,12.16
2019-04-29T17:49:22.126Z,12.11
2019-04-29T17:51:59.553Z,12.09
2019-04-29T17:54:45.220Z,12.06
2019-04-29T17:57:28.158Z,12.03
2019-04-29T18:00:05.085Z,12.02
2019-04-29T18:02:57.402Z,11.93
2019-04-29T18:05:34.512Z,11.93
2019-04-29T18:08:11.392Z,11.86
2019-04-29T18:10:45.786Z,11.78
2019-04-29T18:13:23.755Z,11.74
2019-04-29T18:16:01.684Z,11.73
2019-04-29T18:18:28.798Z,11.76
2019-04-29T18:21:15.664Z,11.78
2019-04-29T18:23:59.557Z,11.74
2019-04-29T18:26:33.755Z,11.73
2019-04-29T18:29:08.056Z,11.66
2019-04-29T18:31:40.211Z,11.63
2019-04-29T18:34:15.185Z,11.58
2019-04-29T18:36:49.427Z,11.54
2019-04-29T18:39:31.465Z,11.49
2019-04-29T18:42:06.841Z,11.47
2019-04-29T18:44:42.051Z,11.38
2019-04-29T18:47:21.994Z,11.38
2019-04-29T18:49:51.137Z,11.37
2019-04-29T18:52:27.878Z,11.37
2019-04-29T18:55:05.870Z,11.37
2019-04-29T18:57:45.881Z,11.39
2019-04-29T19:00:21.929Z,11.39
2019-04-29T19:03:01.112Z,11.35
2019-04-29T19:05:41.742Z,11.36
2019-04-29T19:08:23.069Z,11.33
2019-04-29T19:10:52.144Z,11.27
2019-04-29T19:13:30.832Z,11.27
2019-04-29T19:16:10.298Z,11.24
2019-04-29T19:18:47.498Z,11.24
2019-04-29T19:21:23.509Z,11.23
2019-04-29T19:23:57.408Z,11.20
2019-04-29T19:26:36.224Z,11.20
2019-04-29T19:29:20.964Z,11.20
2019-04-29T19:32:09.315Z,11.17
2019-04-29T19:34:50.067Z,11.17
2019-04-29T19:37:32.496Z,11.21
2019-04-29T19:40:04.916Z,11.19
2019-04-29T19:42:40.993Z,11.20
2019-04-29T19:45:20.392Z,11.19
2019-04-29T19:47:56.217Z,11.20
2019-04-29T19:50:35.855Z,11.15
2019-04-29T19:53:12.156Z,11.12
2019-04-29T19:55:47.508Z,11.12
2019-04-29T19:58:28.483Z,11.11
2019-04-29T20:01:00.184Z,11.12
2019-04-29T20:03:37.921Z,11.15
2019-04-29T20:06:24.702Z,11.19
2019-04-29T20:08:54.869Z,11.19
2019-04-29T20:11:32.852Z,11.18
2019-04-29T20:14:06.476Z,11.18
2019-04-29T20:16:54.776Z,11.21
2019-04-29T20:19:27.436Z,11.23
2019-04-29T20:22:05.581Z,11.22
2019-04-29T20:24:37.661Z,11.14
2019-04-29T20:27:11.636Z,11.14
2019-04-29T20:29:48.353Z,11.11
2019-04-29T20:32:31.865Z,11.07
2019-04-29T20:35:10.117Z,11.08
2019-04-29T20:37:43.663Z,11.09
2019-04-29T20:40:16.220Z,11.06
2019-04-29T20:42:49.361Z,11.06
2019-04-29T20:45:25.428Z,11.07
2019-04-29T20:47:56.077Z,11.11
2019-04-29T20:50:28.262Z,11.04
2019-04-29T20:53:11.356Z,11.02
2019-04-29T20:55:43.187Z,11.04
2019-04-29T20:58:15.684Z,10.97
2019-04-29T21:00:47.935Z,10.96
2019-04-29T21:03:27.825Z,10.97
2019-04-29T21:05:54.981Z,10.99
2019-04-29T21:08:26.802Z,10.98
2019-04-29T21:11:00.571Z,11.05
2019-04-29T21:13:37.052Z,11.05
2019-04-29T21:16:10.548Z,11.05
2019-04-29T21:18:45.472Z,11.03
2019-04-29T21:21:15.913Z,10.99
2019-04-29T21:23:48.314Z,10.96
2019-04-29T21:26:20.037Z,10.96
2019-04-29T21:28:52.947Z,10.99
2019-04-29T21:31:25.566Z,11.01
2019-04-29T21:33:58.859Z,11.03
2019-04-29T21:36:38.333Z,10.98
2019-04-29T21:39:22.099Z,10.97
2019-04-29T21:41:58.742Z,10.99
2019-04-29T21:44:29.691Z,11.00
2019-04-29T21:47:04.691Z,11.00
2019-04-29T21:49:44.957Z,10.98
2019-04-29T21:52:09.662Z,10.98
2019-04-29T21:54:44.630Z,10.99
2019-04-29T21:57:17.020Z,11.01
2019-04-29T21:59:49.355Z,11.04
2019-04-29T22:02:21.523Z,11.07
2019-04-29T22:04:55.213Z,11.00
2019-04-29T22:07:27.199Z,11.03
2019-04-29T22:09:59.309Z,11.02
2019-04-29T22:12:31.520Z,11.00
2019-04-29T22:15:05.891Z,10.98
2019-04-29T22:17:37.716Z,11.08
2019-04-29T22:20:11.489Z,11.13
2019-04-29T22:22:45.241Z,11.20
2019-04-29T22:25:16.800Z,11.18
2019-04-29T22:27:49.041Z,11.18
2019-04-29T22:30:22.363Z,11.17
2019-04-29T22:32:58.048Z,11.13
2019-04-29T22:35:32.798Z,11.13
2019-04-29T22:38:01.582Z,11.12
2019-04-29T22:40:40.754Z,11.08
2019-04-29T22:43:14.277Z,11.04
2019-04-29T22:45:45.314Z,11.01
2019-04-29T22:48:19.811Z,10.96
2019-04-29T22:50:51.637Z,10.94
2019-04-29T22:53:24.875Z,10.92
2019-04-29T22:55:56.749Z,10.91
2019-04-29T22:58:28.764Z,10.88
2019-04-29T23:01:02.456Z,10.84
2019-04-29T23:03:37.500Z,10.85
2019-04-29T23:06:08.489Z,10.80
2019-04-29T23:08:40.372Z,10.73
2019-04-29T23:11:12.352Z,10.68
2019-04-29T23:13:46.168Z,10.65
2019-04-29T23:16:17.851Z,10.65
2019-04-29T23:18:49.866Z,10.61
2019-04-29T23:21:44.798Z,10.55
2019-04-29T23:24:17.605Z,10.51
2019-04-29T23:26:49.526Z,10.48
2019-04-29T23:29:21.603Z,10.47
2019-04-29T23:31:55.287Z,10.51
2019-04-29T23:34:29.221Z,10.52
2019-04-29T23:37:00.801Z,10.49
2019-04-29T23:39:34.822Z,10.50
2019-04-29T23:42:12.209Z,10.47
2019-04-29T23:44:42.370Z,10.49
2019-04-29T23:47:15.809Z,10.50
2019-04-29T23:49:47.740Z,10.48
2019-04-29T23:52:19.610Z,10.47
2019-04-29T23:54:51.441Z,10.48
2019-04-29T23:57:28.534Z,10.48
